createdAt,value
2022-11-26T00:00:19.117Z,101341.53
2022-11-26T00:02:46.257Z,101347.69
2022-11-26T00:05:14.666Z,101340.66
2022-11-26T00:07:44.558Z,101350.78
2022-11-26T00:10:18.986Z,101342.31
2022-11-26T00:12:45.744Z,101345.16
2022-11-26T00:15:16.143Z,101346.59
2022-11-26T00:17:42.767Z,101347.63
2022-11-26T00:20:09.528Z,101351.75
2022-11-26T00:22:40.287Z,101357.72
2022-11-26T00:25:13.650Z,101360.81
2022-11-26T00:27:40.240Z,101363.28
2022-11-26T00:30:15.058Z,101369.06
2022-11-26T00:32:41.655Z,101372.28
2022-11-26T00:35:08.412Z,101365.25
2022-11-26T00:37:55.109Z,101375.81
2022-11-26T00:40:27.211Z,101371.91
2022-11-26T00:43:00.146Z,101377.59
2022-11-26T00:45:30.330Z,101377.13
2022-11-26T00:48:01.776Z,101381.25
2022-11-26T00:50:33.997Z,101388.28
2022-11-26T00:53:00.459Z,101386.34
2022-11-26T00:55:34.536Z,101401.91
2022-11-26T00:58:01.372Z,101402.19
2022-11-26T01:00:30.288Z,101408.78
2022-11-26T01:02:57.218Z,101409.38
2022-11-26T01:05:26.504Z,101413.72
2022-11-26T01:07:53.587Z,101424.19
2022-11-26T01:10:25.460Z,101428.91
2022-11-26T01:12:53.072Z,101422.06
2022-11-26T01:15:22.814Z,101427.25
2022-11-26T01:17:49.617Z,101430.50
2022-11-26T01:20:26.607Z,101424.81
2022-11-26T01:22:55.288Z,101430.97
2022-11-26T01:25:23.029Z,101430.06
2022-11-26T01:27:49.511Z,101431.06
2022-11-26T01:30:20.541Z,101440.41
2022-11-26T01:32:48.593Z,101438.50
2022-11-26T01:35:16.573Z,101453.94
2022-11-26T01:37:43.541Z,101448.56
2022-11-26T01:40:25.156Z,101461.84
2022-11-26T01:43:15.367Z,101464.81
2022-11-26T01:45:41.856Z,101455.59
2022-11-26T01:48:30.269Z,101461.13
2022-11-26T01:51:07.079Z,101460.56
2022-11-26T01:53:45.941Z,101469.28
2022-11-26T01:56:31.921Z,101469.81
2022-11-26T01:59:28.209Z,101473.13
2022-11-26T02:01:58.458Z,101472.25
2022-11-26T02:04:33.233Z,101475.53
2022-11-26T02:06:59.695Z,101473.44
2022-11-26T02:09:27.789Z,101470.56
2022-11-26T02:11:54.379Z,101473.25
2022-11-26T02:14:25.843Z,101478.06
2022-11-26T02:17:18.013Z,101480.16
2022-11-26T02:20:02.522Z,101482.84
2022-11-26T02:22:35.014Z,101492.13
2022-11-26T02:25:23.478Z,101487.94
2022-11-26T02:28:08.174Z,101498.22
2022-11-26T02:30:39.000Z,101500.56
2022-11-26T02:33:24.062Z,101501.09
2022-11-26T02:35:58.187Z,101510.44
2022-11-26T02:38:30.486Z,101509.16
2022-11-26T02:40:57.398Z,101507.66
2022-11-26T02:43:26.018Z,101512.22
2022-11-26T02:46:01.130Z,101522.56
2022-11-26T02:48:34.522Z,101518.88
2022-11-26T02:51:06.041Z,101523.59
2022-11-26T02:53:34.704Z,101524.97
2022-11-26T02:56:05.229Z,101526.47
2022-11-26T02:58:33.191Z,101524.97
2022-11-26T03:01:03.431Z,101525.84
2022-11-26T03:03:36.225Z,101527.94
2022-11-26T03:06:08.307Z,101529.78
2022-11-26T03:08:34.834Z,101534.50
2022-11-26T03:11:01.322Z,101538.66
2022-11-26T03:13:28.163Z,101538.66
2022-11-26T03:15:54.604Z,101544.03
2022-11-26T03:18:21.256Z,101547.38
2022-11-26T03:20:51.045Z,101552.75
2022-11-26T03:23:18.849Z,101550.25
2022-11-26T03:25:45.317Z,101550.06
2022-11-26T03:28:11.830Z,101546.53
2022-11-26T03:30:38.352Z,101558.13
2022-11-26T03:33:04.816Z,101556.44
2022-11-26T03:35:31.335Z,101559.78
2022-11-26T03:37:57.810Z,101560.81
2022-11-26T03:40:24.292Z,101573.19
2022-11-26T03:42:50.725Z,101565.97
2022-11-26T03:45:17.221Z,101572.16
2022-11-26T03:47:43.730Z,101565.97
2022-11-26T03:50:10.415Z,101573.00
2022-11-26T03:52:37.174Z,101576.72
2022-11-26T03:55:03.611Z,101579.16
2022-11-26T03:57:30.068Z,101581.50
2022-11-26T03:59:56.519Z,101579.84
2022-11-26T04:02:22.980Z,101580.06
2022-11-26T04:04:49.486Z,101586.25
2022-11-26T04:07:16.068Z,101588.25
2022-11-26T04:09:42.536Z,101582.91
2022-11-26T04:12:09.009Z,101589.13
2022-11-26T04:14:35.682Z,101586.63
2022-11-26T04:17:02.186Z,101597.31
2022-11-26T04:19:28.705Z,101601.53
2022-11-26T04:21:55.134Z,101597.34
2022-11-26T04:24:21.570Z,101593.19
2022-11-26T04:26:48.090Z,101594.19
2022-11-26T04:29:14.564Z,101598.91
2022-11-26T04:31:41.173Z,101590.22
2022-11-26T04:34:07.695Z,101594.94
2022-11-26T04:36:34.201Z,101601.31
2022-11-26T04:39:00.750Z,101609.56
2022-11-26T04:41:27.246Z,101604.56
2022-11-26T04:43:53.693Z,101608.25
2022-11-26T04:46:20.172Z,101614.00
2022-11-26T04:48:46.666Z,101611.50
2022-11-26T04:51:13.115Z,101613.53
2022-11-26T04:53:39.518Z,101620.09
2022-11-26T04:56:06.178Z,101615.75
2022-11-26T04:58:32.618Z,101624.16
2022-11-26T05:00:59.163Z,101630.72
2022-11-26T05:03:25.786Z,101629.25
2022-11-26T05:05:52.291Z,101626.94
2022-11-26T05:08:18.762Z,101622.59
2022-11-26T05:10:45.262Z,101620.28
2022-11-26T05:13:11.726Z,101623.16
2022-11-26T05:15:38.321Z,101621.84
2022-11-26T05:18:04.823Z,101619.34
2022-11-26T05:20:31.417Z,101624.25
2022-11-26T05:22:57.863Z,101629.13
2022-11-26T05:25:24.302Z,101629.50
2022-11-26T05:27:50.759Z,101640.56
2022-11-26T05:30:17.232Z,101645.31
2022-11-26T05:32:43.708Z,101653.72
2022-11-26T05:35:10.258Z,101653.06
2022-11-26T05:37:36.919Z,101660.41
2022-11-26T05:40:04.237Z,101654.44
2022-11-26T05:42:30.683Z,101661.81
2022-11-26T05:44:57.122Z,101670.88
2022-11-26T05:47:23.655Z,101677.25
2022-11-26T05:49:50.090Z,101665.03
2022-11-26T05:52:16.575Z,101673.25
2022-11-26T05:54:43.131Z,101677.94
2022-11-26T05:57:10.799Z,101676.47
2022-11-26T05:59:37.219Z,101680.50
2022-11-26T06:02:03.895Z,101680.50
2022-11-26T06:04:30.539Z,101677.34
2022-11-26T06:06:57.076Z,101678.38
2022-11-26T06:09:23.771Z,101680.41
2022-11-26T06:11:50.916Z,101687.81
2022-11-26T06:14:18.070Z,101693.50
2022-11-26T06:16:44.539Z,101694.50
2022-11-26T06:19:12.043Z,101690.19
2022-11-26T06:21:38.544Z,101692.53
2022-11-26T06:24:05.499Z,101699.91
2022-11-26T06:26:31.936Z,101698.59
2022-11-26T06:28:58.376Z,101701.59
2022-11-26T06:31:24.821Z,101705.28
2022-11-26T06:33:55.491Z,101708.97
2022-11-26T06:36:22.762Z,101714.75
2022-11-26T06:38:49.297Z,101713.44
2022-11-26T06:41:15.752Z,101719.13
2022-11-26T06:43:42.208Z,101725.19
2022-11-26T06:46:10.934Z,101734.56
2022-11-26T06:48:39.164Z,101732.25
2022-11-26T06:51:08.200Z,101735.66
2022-11-26T06:53:35.026Z,101732.78
2022-11-26T06:56:05.616Z,101734.22
2022-11-26T06:58:32.338Z,101745.03
2022-11-26T07:00:58.804Z,101736.94
2022-11-26T07:03:30.498Z,101742.38
2022-11-26T07:05:59.636Z,101747.59
2022-11-26T07:08:26.068Z,101747.09
2022-11-26T07:10:52.493Z,101755.47
2022-11-26T07:13:18.963Z,101758.50
2022-11-26T07:15:45.646Z,101766.81
2022-11-26T07:18:12.161Z,101773.22
2022-11-26T07:20:38.793Z,101773.34
2022-11-26T07:23:05.205Z,101767.34
2022-11-26T07:25:31.653Z,101765.69
2022-11-26T07:27:58.874Z,101783.56
2022-11-26T07:30:25.525Z,101788.25
2022-11-26T07:32:52.008Z,101781.72
2022-11-26T07:35:18.531Z,101774.53
2022-11-26T07:37:45.056Z,101777.69
2022-11-26T07:40:11.956Z,101772.19
2022-11-26T07:42:38.498Z,101773.84
2022-11-26T07:45:05.510Z,101783.22
2022-11-26T07:47:32.107Z,101789.88
2022-11-26T07:49:58.634Z,101790.41
2022-11-26T07:52:25.088Z,101791.72
2022-11-26T07:54:51.550Z,101791.22
2022-11-26T07:57:18.378Z,101797.22
2022-11-26T07:59:44.773Z,101798.50
2022-11-26T08:02:17.586Z,101801.22
2022-11-26T08:04:44.264Z,101794.53
2022-11-26T08:07:11.487Z,101809.09
2022-11-26T08:09:39.117Z,101813.28
2022-11-26T08:12:06.814Z,101818.78
2022-11-26T08:14:33.469Z,101820.94
2022-11-26T08:16:59.917Z,101818.41
2022-11-26T08:19:26.437Z,101821.59
2022-11-26T08:21:52.858Z,101817.56
2022-11-26T08:24:20.124Z,101826.09
2022-11-26T08:26:46.708Z,101827.56
2022-11-26T08:29:13.974Z,101828.22
2022-11-26T08:31:46.005Z,101828.91
2022-11-26T08:34:15.619Z,101830.88
2022-11-26T08:36:42.757Z,101838.91
2022-11-26T08:39:12.713Z,101833.22
2022-11-26T08:41:39.226Z,101834.56
2022-11-26T08:44:07.477Z,101846.25
2022-11-26T08:46:38.495Z,101847.59
2022-11-26T08:49:06.005Z,101838.69
2022-11-26T08:51:32.838Z,101848.72
2022-11-26T08:53:59.423Z,101852.19
2022-11-26T08:56:26.170Z,101854.66
2022-11-26T08:58:52.562Z,101846.41
2022-11-26T09:01:27.690Z,101851.31
2022-11-26T09:03:57.396Z,101851.88
2022-11-26T09:06:26.079Z,101858.34
2022-11-26T09:09:11.005Z,101861.09
2022-11-26T09:11:40.687Z,101855.22
2022-11-26T09:14:07.665Z,101849.69
2022-11-26T09:16:34.327Z,101845.88
2022-11-26T09:19:01.266Z,101852.19
2022-11-26T09:21:28.086Z,101853.88
2022-11-26T09:23:55.650Z,101856.16
2022-11-26T09:26:22.660Z,101851.44
2022-11-26T09:28:49.540Z,101852.06
2022-11-26T09:31:16.856Z,101864.06
2022-11-26T09:33:44.072Z,101863.19
2022-11-26T09:36:13.901Z,101866.72
2022-11-26T09:38:41.175Z,101868.25
2022-11-26T09:41:32.584Z,101860.31
2022-11-26T09:44:14.666Z,101865.75
2022-11-26T09:47:12.546Z,101853.81
2022-11-26T09:49:51.746Z,101865.81
2022-11-26T09:52:21.295Z,101860.38
2022-11-26T09:54:51.507Z,101864.91
2022-11-26T09:58:04.676Z,101879.53
2022-11-26T10:00:34.611Z,101878.34
2022-11-26T10:03:01.144Z,101871.69
2022-11-26T10:06:09.998Z,101883.81
2022-11-26T10:08:57.724Z,101882.06
2022-11-26T10:11:33.351Z,101886.25
2022-11-26T10:14:15.475Z,101884.59
2022-11-26T10:16:49.501Z,101874.66
2022-11-26T10:19:24.310Z,101875.31
2022-11-26T10:21:59.142Z,101876.53
2022-11-26T10:24:34.876Z,101884.41
2022-11-26T10:27:05.357Z,101873.63
2022-11-26T10:29:39.401Z,101868.50
2022-11-26T10:32:23.924Z,101870.03
2022-11-26T10:34:54.819Z,101883.72
2022-11-26T10:37:23.395Z,101878.44
2022-11-26T10:40:00.874Z,101879.75
2022-11-26T10:42:40.640Z,101888.56
2022-11-26T10:45:21.108Z,101891.09
2022-11-26T10:47:47.549Z,101896.72
2022-11-26T10:50:46.477Z,101887.47
2022-11-26T10:53:32.352Z,101902.56
2022-11-26T10:56:00.436Z,101898.94
2022-11-26T10:58:31.390Z,101902.22
2022-11-26T11:01:01.514Z,101895.59
2022-11-26T11:04:06.024Z,101901.63
2022-11-26T11:06:19.048Z,101902.03
2022-11-26T11:08:48.012Z,101897.22
2022-11-26T11:11:26.408Z,101898.47
2022-11-26T11:13:53.428Z,101906.38
2022-11-26T11:16:39.430Z,101897.25
2022-11-26T11:19:20.222Z,101901.38
2022-11-26T11:21:48.526Z,101907.19
2022-11-26T11:24:22.629Z,101910.13
2022-11-26T11:26:54.798Z,101899.53
2022-11-26T11:29:30.097Z,101908.69
2022-11-26T11:31:57.782Z,101912.63
2022-11-26T11:34:34.357Z,101901.84
2022-11-26T11:37:21.929Z,101907.28
2022-11-26T11:40:17.216Z,101911.44
2022-11-26T11:42:51.993Z,101896.88
2022-11-26T11:45:34.441Z,101900.59
2022-11-26T11:48:30.929Z,101896.88
2022-11-26T11:51:21.765Z,101902.25
2022-11-26T11:54:03.281Z,101900.19
2022-11-26T11:56:44.055Z,101903.13
2022-11-26T12:02:13.312Z,101888.19
2022-11-26T12:04:57.920Z,101886.38
2022-11-26T12:07:35.725Z,101889.28
2022-11-26T12:10:10.174Z,101886.81
2022-11-26T12:12:44.554Z,101885.22
2022-11-26T12:15:33.842Z,101880.03
2022-11-26T12:18:17.886Z,101885.69
2022-11-26T12:20:57.227Z,101881.75
2022-11-26T12:23:30.623Z,101894.28
2022-11-26T12:26:06.666Z,101879.53
2022-11-26T12:28:49.747Z,101879.75
2022-11-26T12:31:29.092Z,101886.16
2022-11-26T12:34:08.197Z,101887.81
2022-11-26T12:36:41.575Z,101884.69
2022-11-26T12:39:34.547Z,101877.59
2022-11-26T12:42:42.075Z,101882.31
2022-11-26T12:45:47.379Z,101870.84
2022-11-26T12:48:24.716Z,101882.47
2022-11-26T12:50:56.324Z,101872.06
2022-11-26T12:53:44.832Z,101882.88
2022-11-26T12:56:37.493Z,101869.50
2022-11-26T12:59:18.278Z,101877.00
2022-11-26T13:01:45.395Z,101869.50
2022-11-26T13:04:36.777Z,101863.25
2022-11-26T13:07:11.250Z,101867.34
2022-11-26T13:09:43.452Z,101862.50
2022-11-26T13:12:31.387Z,101857.44
2022-11-26T13:15:12.676Z,101857.94
2022-11-26T13:17:48.927Z,101858.31
2022-11-26T13:20:54.453Z,101847.78
2022-11-26T13:23:58.412Z,101852.66
2022-11-26T13:26:34.819Z,101854.88
2022-11-26T13:29:22.808Z,101861.31
2022-11-26T13:31:55.354Z,101847.28
2022-11-26T13:34:24.661Z,101851.75
2022-11-26T13:37:06.596Z,101856.66
2022-11-26T13:39:51.540Z,101853.28
2022-11-26T13:42:54.280Z,101850.69
2022-11-26T13:45:26.264Z,101850.69
2022-11-26T13:48:07.564Z,101850.69
2022-11-26T13:50:59.757Z,101861.53
2022-11-26T13:53:34.836Z,101857.00
2022-11-26T13:56:05.806Z,101862.47
2022-11-26T13:58:45.455Z,101869.66
2022-11-26T14:01:37.180Z,101862.56
2022-11-26T14:04:09.803Z,101866.28
2022-11-26T14:06:37.210Z,101865.59
2022-11-26T14:09:05.801Z,101869.88
2022-11-26T14:11:41.032Z,101873.88
2022-11-26T14:14:26.085Z,101871.22
2022-11-26T14:17:02.123Z,101879.88
2022-11-26T14:19:40.789Z,101874.13
2022-11-26T14:22:19.667Z,101884.59
2022-11-26T14:24:49.453Z,101877.19
2022-11-26T14:27:29.757Z,101884.53
2022-11-26T14:30:16.890Z,101880.84
2022-11-26T14:33:08.413Z,101887.34
2022-11-26T14:35:38.307Z,101882.88
2022-11-26T14:38:08.629Z,101890.81
2022-11-26T14:40:38.044Z,101894.44
2022-11-26T14:43:15.321Z,101887.16
2022-11-26T14:45:44.111Z,101892.97
2022-11-26T14:48:28.006Z,101886.31
2022-11-26T14:50:58.074Z,101890.94
2022-11-26T14:53:30.784Z,101893.66
2022-11-26T14:55:58.371Z,101890.13
2022-11-26T14:58:30.921Z,101884.13
2022-11-26T15:01:16.823Z,101888.88
2022-11-26T15:03:53.816Z,101886.00
2022-11-26T15:06:43.097Z,101871.84
2022-11-26T15:09:18.374Z,101875.38
2022-11-26T15:11:54.159Z,101877.88
2022-11-26T15:14:44.201Z,101881.41
2022-11-26T15:17:15.794Z,101882.59
2022-11-26T15:19:42.898Z,101871.13
2022-11-26T15:22:34.344Z,101878.00
2022-11-26T15:25:01.471Z,101885.41
2022-11-26T15:27:36.159Z,101879.59
2022-11-26T15:30:05.719Z,101882.06
2022-11-26T15:32:33.511Z,101877.22
2022-11-26T15:35:02.977Z,101876.97
2022-11-26T15:37:29.630Z,101881.94
2022-11-26T15:40:10.066Z,101875.81
2022-11-26T15:42:39.379Z,101878.56
2022-11-26T15:45:20.315Z,101878.13
2022-11-26T15:47:52.465Z,101876.00
2022-11-26T15:50:28.034Z,101876.34
2022-11-26T15:52:59.427Z,101878.75
2022-11-26T15:55:30.219Z,101883.25
2022-11-26T15:57:58.208Z,101887.53
2022-11-26T16:00:36.139Z,101886.50
2022-11-26T16:03:03.586Z,101880.38
2022-11-26T16:05:35.847Z,101883.06
2022-11-26T16:08:22.391Z,101887.56
2022-11-26T16:11:09.355Z,101884.50
2022-11-26T16:13:36.453Z,101894.91
2022-11-26T16:16:16.954Z,101882.09
2022-11-26T16:18:46.291Z,101890.66
2022-11-26T16:21:30.341Z,101894.63
2022-11-26T16:23:56.772Z,101889.91
2022-11-26T16:26:23.377Z,101892.97
2022-11-26T16:28:49.936Z,101893.78
2022-11-26T16:31:18.285Z,101903.25
2022-11-26T16:33:45.204Z,101896.94
2022-11-26T16:36:25.245Z,101906.03
2022-11-26T16:38:52.638Z,101909.00
2022-11-26T16:41:21.735Z,101905.88
2022-11-26T16:43:49.304Z,101901.25
2022-11-26T16:46:19.647Z,101903.28
2022-11-26T16:48:47.489Z,101904.03
2022-11-26T16:51:14.804Z,101912.69
2022-11-26T16:53:41.873Z,101914.28
2022-11-26T16:59:19.339Z,101914.28
2022-11-26T17:01:46.139Z,101907.88
2022-11-26T17:04:12.809Z,101912.81
2022-11-26T17:06:40.673Z,101915.88
2022-11-26T17:09:16.939Z,101912.34
2022-11-26T17:11:43.803Z,101907.72
2022-11-26T17:14:11.478Z,101913.84
2022-11-26T17:16:40.114Z,101915.06
2022-11-26T17:19:12.518Z,101904.66
2022-11-26T17:21:39.106Z,101913.81
2022-11-26T17:24:05.881Z,101906.34
2022-11-26T17:26:32.350Z,101907.16
2022-11-26T17:28:58.855Z,101907.25
2022-11-26T17:31:25.352Z,101898.47
2022-11-26T17:33:53.426Z,101909.94
2022-11-26T17:36:22.569Z,101905.28
2022-11-26T17:38:49.789Z,101900.66
2022-11-26T17:41:16.821Z,101893.97
2022-11-26T17:43:43.857Z,101896.00
2022-11-26T17:46:15.501Z,101894.13
2022-11-26T18:02:30.225Z,101895.91
2022-11-26T18:04:56.981Z,101901.97
2022-11-26T18:07:23.469Z,101896.00
2022-11-26T18:09:49.958Z,101895.28
2022-11-26T18:12:25.236Z,101906.03
2022-11-26T18:14:53.718Z,101899.72
2022-11-26T18:17:20.719Z,101905.44
2022-11-26T18:19:47.611Z,101902.94
2022-11-26T18:22:22.913Z,101912.13
2022-11-26T18:24:57.214Z,101911.16
2022-11-26T18:27:30.688Z,101907.97
2022-11-26T18:29:57.303Z,101905.97
2022-11-26T18:32:26.828Z,101908.13
2022-11-26T18:34:53.468Z,101909.50
2022-11-26T18:37:19.947Z,101907.84
2022-11-26T18:39:46.447Z,101907.84
2022-11-26T18:45:00.574Z,101907.84
2022-11-26T18:47:27.012Z,101903.66
2022-11-26T18:49:53.531Z,101914.03
2022-11-26T18:52:23.047Z,101913.03
2022-11-26T18:54:49.472Z,101900.31
2022-11-26T18:57:15.970Z,101907.38
2022-11-26T18:59:42.656Z,101905.69
2022-11-26T19:02:10.375Z,101902.09
2022-11-26T19:04:36.886Z,101900.13
2022-11-26T19:07:03.374Z,101897.00
2022-11-26T19:09:29.957Z,101894.81
2022-11-26T19:11:56.482Z,101886.13
2022-11-26T19:14:23.146Z,101893.34
2022-11-26T19:16:51.371Z,101897.22
2022-11-26T19:19:18.581Z,101896.56
2022-11-26T19:21:45.130Z,101893.22
2022-11-26T19:24:12.535Z,101902.13
2022-11-26T19:26:41.424Z,101899.59
2022-11-26T19:29:09.735Z,101894.22
2022-11-26T19:31:39.009Z,101894.59
2022-11-26T19:34:09.004Z,101897.28
2022-11-26T19:36:35.550Z,101887.75
2022-11-26T19:39:02.508Z,101894.09
2022-11-26T19:41:29.522Z,101892.63
2022-11-26T19:43:56.438Z,101889.13
2022-11-26T19:46:24.823Z,101882.91
2022-11-26T19:48:52.629Z,101890.31
2022-11-26T19:51:20.933Z,101887.81
2022-11-26T19:53:49.563Z,101885.31
2022-11-26T19:56:19.468Z,101885.13
2022-11-26T19:58:46.767Z,101882.81
2022-11-26T20:01:15.441Z,101881.94
2022-11-26T20:03:42.388Z,101883.13
2022-11-26T20:06:21.432Z,101875.38
2022-11-26T20:08:49.016Z,101880.63
2022-11-26T20:11:16.827Z,101883.50
2022-11-26T20:13:44.866Z,101888.19
2022-11-26T20:16:15.053Z,101893.41
2022-11-26T20:18:41.757Z,101888.38
2022-11-26T20:21:11.500Z,101892.56
2022-11-26T20:23:38.931Z,101880.69
2022-11-26T20:26:16.755Z,101883.69
2022-11-26T20:28:43.906Z,101881.06
2022-11-26T20:31:11.306Z,101876.03
2022-11-26T20:33:37.898Z,101877.06
2022-11-26T20:36:09.550Z,101883.75
2022-11-26T20:38:36.699Z,101875.72
2022-11-26T20:41:21.946Z,101868.47
2022-11-26T20:43:51.279Z,101876.44
2022-11-26T20:46:20.912Z,101878.47
2022-11-26T20:48:47.531Z,101871.78
2022-11-26T20:51:17.298Z,101872.63
2022-11-26T20:53:49.671Z,101871.28
2022-11-26T20:56:17.018Z,101865.47
2022-11-26T20:58:43.674Z,101861.09
2022-11-26T21:01:21.920Z,101862.25
2022-11-26T21:03:48.848Z,101866.97
2022-11-26T21:06:17.870Z,101859.13
2022-11-26T21:08:44.657Z,101861.16
2022-11-26T21:11:11.981Z,101861.31
2022-11-26T21:13:39.322Z,101866.16
2022-11-26T21:16:08.042Z,101876.56
2022-11-26T21:18:34.556Z,101870.06
2022-11-26T21:21:07.443Z,101877.28
2022-11-26T21:23:34.399Z,101877.63
2022-11-26T21:26:05.793Z,101881.78
2022-11-26T21:28:32.200Z,101879.34
2022-11-26T21:30:58.757Z,101886.38
2022-11-26T21:33:25.248Z,101873.47
2022-11-26T21:35:51.680Z,101882.69
2022-11-26T21:38:20.419Z,101886.38
2022-11-26T21:40:50.396Z,101889.41
2022-11-26T21:43:16.887Z,101883.41
2022-11-26T21:45:43.411Z,101893.81
2022-11-26T21:48:09.907Z,101887.78
2022-11-26T21:50:36.328Z,101892.50
2022-11-26T21:53:03.105Z,101892.81
2022-11-26T21:55:29.472Z,101898.75
2022-11-26T21:57:55.913Z,101901.22
2022-11-26T22:00:23.296Z,101890.94
2022-11-26T22:02:51.027Z,101900.19
2022-11-26T22:05:17.469Z,101905.69
2022-11-26T22:07:44.050Z,101908.56
2022-11-26T22:10:11.120Z,101916.78
2022-11-26T22:12:37.790Z,101907.22
2022-11-26T22:15:04.552Z,101912.59
2022-11-26T22:17:30.904Z,101908.72
2022-11-26T22:19:57.714Z,101913.44
2022-11-26T22:22:24.960Z,101904.22
2022-11-26T22:24:51.396Z,101891.19
2022-11-26T22:27:17.841Z,101900.91
2022-11-26T22:29:44.304Z,101890.50
2022-11-26T22:32:10.760Z,101891.69
2022-11-26T22:34:37.361Z,101897.03
2022-11-26T22:37:03.934Z,101895.38
2022-11-26T22:39:31.811Z,101903.75
2022-11-26T22:41:58.229Z,101891.22
2022-11-26T22:44:24.929Z,101905.25
2022-11-26T22:46:51.382Z,101899.88
2022-11-26T22:49:18.959Z,101909.59
2022-11-26T22:51:47.362Z,101904.25
2022-11-26T22:54:15.716Z,101913.09
2022-11-26T22:56:42.317Z,101908.59
2022-11-26T22:59:11.795Z,101918.63
2022-11-26T23:01:38.373Z,101909.94
2022-11-26T23:04:07.625Z,101909.56
2022-11-26T23:06:35.840Z,101899.41
2022-11-26T23:09:04.429Z,101896.53
2022-11-26T23:11:37.616Z,101891.84
2022-11-26T23:14:07.265Z,101895.53
2022-11-26T23:16:35.350Z,101890.19
2022-11-26T23:19:03.085Z,101881.13
2022-11-26T23:21:32.343Z,101888.16
2022-11-26T23:23:58.813Z,101867.41
2022-11-26T23:26:28.128Z,101853.84
2022-11-26T23:28:59.166Z,101857.03
2022-11-26T23:31:31.575Z,101846.63
2022-11-26T23:33:58.758Z,101839.63
2022-11-26T23:36:26.543Z,101841.13
2022-11-26T23:38:53.545Z,101830.22
2022-11-26T23:41:20.406Z,101827.56
2022-11-26T23:43:47.203Z,101813.97
2022-11-26T23:46:14.995Z,101820.41
2022-11-26T23:48:42.283Z,101818.16
2022-11-26T23:51:30.267Z,101829.34
2022-11-26T23:53:57.305Z,101804.75
2022-11-26T23:56:26.794Z,101809.94
2022-11-26T23:58:55.463Z,101803.09
